Aviation Digital Data Service (ADDS)

Output produced by METARs form (1839 UTC 18 June 2019)
found at http://www.aviationweather.gov/metar/data/
 
LWOH 181330Z 23005KT 210V340 9999 VCTS SCT033CB 28/13 Q1016
TAF LWOH 181730Z 1818/1918 VRB02KT 9999 SCT040 
     PROB30 
     TEMPO 1818/1821 VRB15KT TSRA FEW033CB SCT040
       
LWSK 181830Z 00000KT 9999 FEW050 22/15 Q1015 NOSIG
TAF LWSK 181730Z 1818/1918 VRB02KT 9999 FEW050